Svartfoss — V2PR3 — position and weather

sailwx.info

Track history (hours):
 
Tides and Currents Weather Stations Pressure Air Temp Water Temp Dewpoint Dewpoint Depression Visibility Wind Speed Wind Dir Waves Ship Positions

Svartfoss

Last reported at 2016-Apr-29 14:33 UTC. Time now 2016-Apr-30 05:18 UTC.
Position N 63°07' E 007°44'.

Length 80 m; draft 5.5 m.

Type: Cargo ship. MMSI: 304882000.

Date/timePositionNaut miles runAvg speedWind from/ knotsBaromVisibWave heightAir tempDewpointWater temp
2016-Apr-29 14:33N 63°07' E 007°44'46 9.1
2016-Apr-29 09:33N 63°31' E 009°10'1313.1
2016-Apr-29 08:33N 63°41' E 009°29'1413.7
2016-Apr-29 07:34N 63°53' E 009°44'5613.7
2016-Apr-29 03:29N 64°41' E 010°50'1414.9
2016-Apr-29 02:33N 64°51' E 011°13'1 0.7
2016-Apr-29 01:33N 64°52' E 011°15'1413.6
2016-Apr-29 00:34N 65°00' E 011°39'1414.4
2016-Apr-28 23:33N 65°13' E 011°54'54 9.8
2016-Apr-28 18:06N 66°04' E 012°38'914.4
2016-Apr-28 17:30N 66°11' E 012°50'1914.3
2016-Apr-28 16:12N 66°29' E 012°59'2313.5
2016-Apr-28 14:30N 66°51' E 013°18'7610.7
2016-Apr-28 07:25N 68°05' E 013°49'2 2.1
2016-Apr-28 06:33N 68°07' E 013°50'0 0.0
2016-Apr-28 05:33N 68°07' E 013°50'1711.8
2016-Apr-28 04:09N 68°13' E 014°33'1 2.3
2016-Apr-28 03:33N 68°14' E 014°33'0 0.0
2016-Apr-28 02:33N 68°14' E 014°33'1 0.5
2016-Apr-28 01:29N 68°14' E 014°33'  
2016-Apr-23 16:33N 69°34' E 033°36'1211.6
2016-Apr-23 15:33N 69°22' E 033°36'1312.8
2016-Apr-23 14:34N 69°09' E 033°32'9 9.4
2016-Apr-23 13:33N 69°04' E 033°10'6 5.9
2016-Apr-23 12:34N 68°59' E 033°03'2 2.3
2016-Apr-23 11:31N 68°56' E 033°02'0 0.0
2016-Apr-23 10:31N 68°56' E 033°02'0 0.0
2016-Apr-23 09:31N 68°56' E 033°02'0 0.0
2016-Apr-23 08:31N 68°56' E 033°02'0 0.0
2016-Apr-23 07:31N 68°56' E 033°02'0 0.0
2016-Apr-23 06:31N 68°56' E 033°02'0 0.0
2016-Apr-23 05:31N 68°56' E 033°02'0 0.0
2016-Apr-23 04:31N 68°56' E 033°02'0 0.0
2016-Apr-23 03:31N 68°56' E 033°02'0 0.0
2016-Apr-23 02:31N 68°56' E 033°02'0 0.0
2016-Apr-23 01:31N 68°56' E 033°02'0 0.0
2016-Apr-23 00:31N 68°56' E 033°02'0 0.5
2016-Apr-22 23:33N 68°57' E 033°01'1 1.2
2016-Apr-22 22:32N 68°58' E 033°03'0 0.0
2016-Apr-22 21:32N 68°58' E 033°03'0 0.3
2016-Apr-22 20:32N 68°58' E 033°03'0 0.0
2016-Apr-22 19:29N 68°58' E 033°03'0 0.0
2016-Apr-22 18:32N 68°58' E 033°03'0 0.0
2016-Apr-22 17:28N 68°58' E 033°03'4 3.9
2016-Apr-22 16:34N 69°02' E 033°03'322 6.4
2016-Apr-20 14:33N 69°17' E 017°58'3 3.2
2016-Apr-20 13:33N 69°14' E 017°58'4 3.8
2016-Apr-20 12:34N 69°10' E 017°57'110 6.1
2016-Apr-19 18:33N 68°06' E 013°50'  
Track history (hours):
 
Tides and Currents Weather Stations Pressure Air Temp Water Temp Dewpoint Dewpoint Depression Visibility Wind Speed Wind Dir Waves Ship Positions

Svartfoss

Last reported at 2016-Apr-29 14:33 UTC. Time now 2016-Apr-30 05:18 UTC.
Position N 63°07' E 007°44'.

Length 80 m; draft 5.5 m.

Type: Cargo ship. MMSI: 304882000.

Date/timePositionNaut miles runAvg speedWind from/ knotsBaromVisibWave heightAir tempDewpointWater temp
2016-Apr-29 14:33N 63°07' E 007°44'46 9.1
2016-Apr-29 09:33N 63°31' E 009°10'1313.1
2016-Apr-29 08:33N 63°41' E 009°29'1413.7
2016-Apr-29 07:34N 63°53' E 009°44'5613.7
2016-Apr-29 03:29N 64°41' E 010°50'1414.9
2016-Apr-29 02:33N 64°51' E 011°13'1 0.7
2016-Apr-29 01:33N 64°52' E 011°15'1413.6
2016-Apr-29 00:34N 65°00' E 011°39'1414.4
2016-Apr-28 23:33N 65°13' E 011°54'54 9.8
2016-Apr-28 18:06N 66°04' E 012°38'914.4
2016-Apr-28 17:30N 66°11' E 012°50'1914.3
2016-Apr-28 16:12N 66°29' E 012°59'2313.5
2016-Apr-28 14:30N 66°51' E 013°18'7610.7
2016-Apr-28 07:25N 68°05' E 013°49'2 2.1
2016-Apr-28 06:33N 68°07' E 013°50'0 0.0
2016-Apr-28 05:33N 68°07' E 013°50'1711.8
2016-Apr-28 04:09N 68°13' E 014°33'1 2.3
2016-Apr-28 03:33N 68°14' E 014°33'0 0.0
2016-Apr-28 02:33N 68°14' E 014°33'1 0.5
2016-Apr-28 01:29N 68°14' E 014°33'  
2016-Apr-23 16:33N 69°34' E 033°36'1211.6
2016-Apr-23 15:33N 69°22' E 033°36'1312.8
2016-Apr-23 14:34N 69°09' E 033°32'9 9.4
2016-Apr-23 13:33N 69°04' E 033°10'6 5.9
2016-Apr-23 12:34N 68°59' E 033°03'2 2.3
2016-Apr-23 11:31N 68°56' E 033°02'0 0.0
2016-Apr-23 10:31N 68°56' E 033°02'0 0.0
2016-Apr-23 09:31N 68°56' E 033°02'0 0.0
2016-Apr-23 08:31N 68°56' E 033°02'0 0.0
2016-Apr-23 07:31N 68°56' E 033°02'0 0.0
2016-Apr-23 06:31N 68°56' E 033°02'0 0.0
2016-Apr-23 05:31N 68°56' E 033°02'0 0.0
2016-Apr-23 04:31N 68°56' E 033°02'0 0.0
2016-Apr-23 03:31N 68°56' E 033°02'0 0.0
2016-Apr-23 02:31N 68°56' E 033°02'0 0.0
2016-Apr-23 01:31N 68°56' E 033°02'0 0.0
2016-Apr-23 00:31N 68°56' E 033°02'0 0.5
2016-Apr-22 23:33N 68°57' E 033°01'1 1.2
2016-Apr-22 22:32N 68°58' E 033°03'0 0.0
2016-Apr-22 21:32N 68°58' E 033°03'0 0.3
2016-Apr-22 20:32N 68°58' E 033°03'0 0.0
2016-Apr-22 19:29N 68°58' E 033°03'0 0.0
2016-Apr-22 18:32N 68°58' E 033°03'0 0.0
2016-Apr-22 17:28N 68°58' E 033°03'4 3.9
2016-Apr-22 16:34N 69°02' E 033°03'322 6.4
2016-Apr-20 14:33N 69°17' E 017°58'3 3.2
2016-Apr-20 13:33N 69°14' E 017°58'4 3.8
2016-Apr-20 12:34N 69°10' E 017°57'110 6.1
2016-Apr-19 18:33N 68°06' E 013°50'  

Dump ship's entire track history